sensor_id;sensor_type;location;lat;lon;timestamp;temperature;humidity
14357;DHT22;7262;48.764;9.166;2022-11-23T00:00:15;4.40;99.90
14357;DHT22;7262;48.764;9.166;2022-11-23T00:02:42;4.40;99.90
14357;DHT22;7262;48.764;9.166;2022-11-23T00:05:09;4.40;99.90
14357;DHT22;7262;48.764;9.166;2022-11-23T00:07:36;4.40;99.90
14357;DHT22;7262;48.764;9.166;2022-11-23T00:10:03;4.30;99.90
14357;DHT22;7262;48.764;9.166;2022-11-23T00:12:31;4.30;99.90
14357;DHT22;7262;48.764;9.166;2022-11-23T00:15:00;4.30;99.90
14357;DHT22;7262;48.764;9.166;2022-11-23T00:17:27;4.30;99.90
14357;DHT22;7262;48.764;9.166;2022-11-23T00:19:54;4.30;99.90
14357;DHT22;7262;48.764;9.166;2022-11-23T00:22:21;4.30;99.90
14357;DHT22;7262;48.764;9.166;2022-11-23T00:24:48;4.30;99.90
14357;DHT22;7262;48.764;9.166;2022-11-23T00:27:15;4.30;99.90
14357;DHT22;7262;48.764;9.166;2022-11-23T00:29:43;4.40;99.90
14357;DHT22;7262;48.764;9.166;2022-11-23T00:32:10;4.40;99.90
14357;DHT22;7262;48.764;9.166;2022-11-23T00:34:37;4.30;99.90
14357;DHT22;7262;48.764;9.166;2022-11-23T00:37:06;4.30;99.90
14357;DHT22;7262;48.764;9.166;2022-11-23T00:39:32;4.30;99.90
14357;DHT22;7262;48.764;9.166;2022-11-23T00:41:59;4.30;99.90
14357;DHT22;7262;48.764;9.166;2022-11-23T00:44:26;4.30;99.90
14357;DHT22;7262;48.764;9.166;2022-11-23T00:46:56;4.20;99.90
14357;DHT22;7262;48.764;9.166;2022-11-23T00:49:23;4.20;99.90
14357;DHT22;7262;48.764;9.166;2022-11-23T00:51:50;4.20;99.90
14357;DHT22;7262;48.764;9.166;2022-11-23T00:54:17;4.20;99.90
14357;DHT22;7262;48.764;9.166;2022-11-23T00:56:44;4.20;99.90
14357;DHT22;7262;48.764;9.166;2022-11-23T00:59:10;4.20;99.90
14357;DHT22;7262;48.764;9.166;2022-11-23T01:01:37;4.20;99.90
14357;DHT22;7262;48.764;9.166;2022-11-23T01:04:06;4.20;99.90
14357;DHT22;7262;48.764;9.166;2022-11-23T01:06:34;4.20;99.90
14357;DHT22;7262;48.764;9.166;2022-11-23T01:09:02;4.20;99.90
14357;DHT22;7262;48.764;9.166;2022-11-23T01:11:30;4.20;99.90
14357;DHT22;7262;48.764;9.166;2022-11-23T01:13:59;4.20;99.90
14357;DHT22;7262;48.764;9.166;2022-11-23T01:16:26;4.20;99.90
14357;DHT22;7262;48.764;9.166;2022-11-23T01:18:53;4.20;99.90
14357;DHT22;7262;48.764;9.166;2022-11-23T01:21:22;4.10;99.90
14357;DHT22;7262;48.764;9.166;2022-11-23T01:23:49;4.20;99.90
14357;DHT22;7262;48.764;9.166;2022-11-23T01:26:16;4.10;99.90
14357;DHT22;7262;48.764;9.166;2022-11-23T01:28:43;4.10;99.90
14357;DHT22;7262;48.764;9.166;2022-11-23T01:31:13;4.10;99.90
14357;DHT22;7262;48.764;9.166;2022-11-23T01:33:40;4.00;99.90
14357;DHT22;7262;48.764;9.166;2022-11-23T01:36:10;4.00;99.90
14357;DHT22;7262;48.764;9.166;2022-11-23T01:38:38;4.00;99.90
14357;DHT22;7262;48.764;9.166;2022-11-23T01:41:05;3.90;99.90
14357;DHT22;7262;48.764;9.166;2022-11-23T01:43:31;4.00;99.90
14357;DHT22;7262;48.764;9.166;2022-11-23T01:46:00;4.00;99.90
14357;DHT22;7262;48.764;9.166;2022-11-23T01:48:31;4.00;99.90
14357;DHT22;7262;48.764;9.166;2022-11-23T01:50:59;4.00;99.90
14357;DHT22;7262;48.764;9.166;2022-11-23T01:53:27;4.00;99.90
14357;DHT22;7262;48.764;9.166;2022-11-23T01:55:58;3.90;99.90
14357;DHT22;7262;48.764;9.166;2022-11-23T01:58:25;3.90;99.90
14357;DHT22;7262;48.764;9.166;2022-11-23T02:00:52;3.80;99.90
14357;DHT22;7262;48.764;9.166;2022-11-23T02:03:19;3.80;99.90
14357;DHT22;7262;48.764;9.166;2022-11-23T02:05:47;3.80;99.90
14357;DHT22;7262;48.764;9.166;2022-11-23T02:08:14;3.70;99.90
14357;DHT22;7262;48.764;9.166;2022-11-23T02:10:44;3.70;99.90
14357;DHT22;7262;48.764;9.166;2022-11-23T02:13:12;3.70;99.90
14357;DHT22;7262;48.764;9.166;2022-11-23T02:15:39;3.80;99.90
14357;DHT22;7262;48.764;9.166;2022-11-23T02:18:09;3.80;99.90
14357;DHT22;7262;48.764;9.166;2022-11-23T02:20:36;3.70;99.90
14357;DHT22;7262;48.764;9.166;2022-11-23T02:23:07;3.70;99.90
14357;DHT22;7262;48.764;9.166;2022-11-23T02:25:39;3.60;99.90
14357;DHT22;7262;48.764;9.166;2022-11-23T02:28:08;3.60;99.90
14357;DHT22;7262;48.764;9.166;2022-11-23T02:30:35;3.60;99.90
14357;DHT22;7262;48.764;9.166;2022-11-23T02:33:02;3.60;99.90
14357;DHT22;7262;48.764;9.166;2022-11-23T02:35:29;3.60;99.90
14357;DHT22;7262;48.764;9.166;2022-11-23T02:37:56;3.60;99.90
14357;DHT22;7262;48.764;9.166;2022-11-23T02:40:25;3.60;99.90
14357;DHT22;7262;48.764;9.166;2022-11-23T02:42:54;3.50;99.90
14357;DHT22;7262;48.764;9.166;2022-11-23T02:45:25;3.50;99.90
14357;DHT22;7262;48.764;9.166;2022-11-23T02:47:52;3.50;99.90
14357;DHT22;7262;48.764;9.166;2022-11-23T02:50:19;3.50;99.90
14357;DHT22;7262;48.764;9.166;2022-11-23T02:52:46;3.50;99.90
14357;DHT22;7262;48.764;9.166;2022-11-23T02:55:12;3.50;99.90
14357;DHT22;7262;48.764;9.166;2022-11-23T02:57:40;3.50;99.90
14357;DHT22;7262;48.764;9.166;2022-11-23T03:00:07;3.50;99.90
14357;DHT22;7262;48.764;9.166;2022-11-23T03:02:35;3.60;99.90
14357;DHT22;7262;48.764;9.166;2022-11-23T03:05:02;3.50;99.90
14357;DHT22;7262;48.764;9.166;2022-11-23T03:07:29;3.50;99.90
14357;DHT22;7262;48.764;9.166;2022-11-23T03:09:57;3.50;99.90
14357;DHT22;7262;48.764;9.166;2022-11-23T03:12:25;3.50;99.90
14357;DHT22;7262;48.764;9.166;2022-11-23T03:14:51;3.50;99.90
14357;DHT22;7262;48.764;9.166;2022-11-23T03:17:18;3.50;99.90
14357;DHT22;7262;48.764;9.166;2022-11-23T03:19:46;3.50;99.90
14357;DHT22;7262;48.764;9.166;2022-11-23T03:22:13;3.50;99.90
14357;DHT22;7262;48.764;9.166;2022-11-23T03:24:41;3.40;99.90
14357;DHT22;7262;48.764;9.166;2022-11-23T03:27:08;3.40;99.90
14357;DHT22;7262;48.764;9.166;2022-11-23T03:29:35;3.40;99.90
14357;DHT22;7262;48.764;9.166;2022-11-23T03:32:02;3.40;99.90
14357;DHT22;7262;48.764;9.166;2022-11-23T03:34:29;3.40;99.90
14357;DHT22;7262;48.764;9.166;2022-11-23T03:36:57;3.40;99.90
14357;DHT22;7262;48.764;9.166;2022-11-23T03:39:31;3.40;99.90
14357;DHT22;7262;48.764;9.166;2022-11-23T03:41:58;3.50;99.90
14357;DHT22;7262;48.764;9.166;2022-11-23T03:44:24;3.40;99.90
14357;DHT22;7262;48.764;9.166;2022-11-23T03:46:53;3.50;99.90
14357;DHT22;7262;48.764;9.166;2022-11-23T03:49:19;3.50;99.90
14357;DHT22;7262;48.764;9.166;2022-11-23T03:51:47;3.60;99.90
14357;DHT22;7262;48.764;9.166;2022-11-23T03:54:15;3.70;99.90
14357;DHT22;7262;48.764;9.166;2022-11-23T03:56:42;3.80;99.90
14357;DHT22;7262;48.764;9.166;2022-11-23T03:59:09;3.80;99.90
14357;DHT22;7262;48.764;9.166;2022-11-23T04:01:36;3.90;99.90
14357;DHT22;7262;48.764;9.166;2022-11-23T04:04:03;4.00;99.90
14357;DHT22;7262;48.764;9.166;2022-11-23T04:06:29;4.00;99.90
14357;DHT22;7262;48.764;9.166;2022-11-23T04:08:56;4.20;99.90
14357;DHT22;7262;48.764;9.166;2022-11-23T04:11:24;4.20;99.90
14357;DHT22;7262;48.764;9.166;2022-11-23T04:13:51;4.30;99.90
14357;DHT22;7262;48.764;9.166;2022-11-23T04:16:18;4.30;99.90
14357;DHT22;7262;48.764;9.166;2022-11-23T04:18:44;4.40;99.90
14357;DHT22;7262;48.764;9.166;2022-11-23T04:21:11;4.40;99.90
14357;DHT22;7262;48.764;9.166;2022-11-23T04:23:40;4.40;99.90
14357;DHT22;7262;48.764;9.166;2022-11-23T04:26:07;4.40;99.90
14357;DHT22;7262;48.764;9.166;2022-11-23T04:28:35;4.40;99.90
14357;DHT22;7262;48.764;9.166;2022-11-23T04:31:01;4.40;99.90
14357;DHT22;7262;48.764;9.166;2022-11-23T04:33:28;4.40;99.90
14357;DHT22;7262;48.764;9.166;2022-11-23T04:35:56;4.30;99.90
14357;DHT22;7262;48.764;9.166;2022-11-23T04:38:23;4.20;99.90
14357;DHT22;7262;48.764;9.166;2022-11-23T04:40:49;4.20;99.90
14357;DHT22;7262;48.764;9.166;2022-11-23T04:43:17;4.20;99.90
14357;DHT22;7262;48.764;9.166;2022-11-23T04:45:46;4.10;99.90
14357;DHT22;7262;48.764;9.166;2022-11-23T04:48:13;4.10;99.90
14357;DHT22;7262;48.764;9.166;2022-11-23T04:50:41;4.10;99.90
14357;DHT22;7262;48.764;9.166;2022-11-23T04:53:07;4.10;99.90
14357;DHT22;7262;48.764;9.166;2022-11-23T04:55:37;4.10;99.90
14357;DHT22;7262;48.764;9.166;2022-11-23T04:58:04;4.00;99.90
14357;DHT22;7262;48.764;9.166;2022-11-23T05:00:31;4.10;99.90
14357;DHT22;7262;48.764;9.166;2022-11-23T05:03:02;4.10;99.90
14357;DHT22;7262;48.764;9.166;2022-11-23T05:05:30;4.10;99.90
14357;DHT22;7262;48.764;9.166;2022-11-23T05:07:56;4.10;99.90
14357;DHT22;7262;48.764;9.166;2022-11-23T05:10:23;4.20;99.90
14357;DHT22;7262;48.764;9.166;2022-11-23T05:12:50;4.20;99.90
14357;DHT22;7262;48.764;9.166;2022-11-23T05:15:17;4.20;99.90
14357;DHT22;7262;48.764;9.166;2022-11-23T05:17:44;4.30;99.90
14357;DHT22;7262;48.764;9.166;2022-11-23T05:20:12;4.30;99.90
14357;DHT22;7262;48.764;9.166;2022-11-23T05:22:39;4.50;99.90
14357;DHT22;7262;48.764;9.166;2022-11-23T05:25:06;4.50;99.90
14357;DHT22;7262;48.764;9.166;2022-11-23T05:27:33;4.60;99.90
14357;DHT22;7262;48.764;9.166;2022-11-23T05:30:00;4.50;99.90
14357;DHT22;7262;48.764;9.166;2022-11-23T05:32:27;4.50;99.90
14357;DHT22;7262;48.764;9.166;2022-11-23T05:34:54;4.50;99.90
14357;DHT22;7262;48.764;9.166;2022-11-23T05:37:23;4.50;99.90
14357;DHT22;7262;48.764;9.166;2022-11-23T05:39:49;4.50;99.90
14357;DHT22;7262;48.764;9.166;2022-11-23T05:42:16;4.50;99.90
14357;DHT22;7262;48.764;9.166;2022-11-23T05:44:43;4.50;99.90
14357;DHT22;7262;48.764;9.166;2022-11-23T05:47:10;4.50;99.90
14357;DHT22;7262;48.764;9.166;2022-11-23T05:49:36;4.50;99.90
14357;DHT22;7262;48.764;9.166;2022-11-23T05:52:03;4.60;99.90
14357;DHT22;7262;48.764;9.166;2022-11-23T05:54:34;4.70;99.90
14357;DHT22;7262;48.764;9.166;2022-11-23T05:57:01;4.70;99.90
14357;DHT22;7262;48.764;9.166;2022-11-23T05:59:28;4.70;99.90
14357;DHT22;7262;48.764;9.166;2022-11-23T06:01:55;4.70;99.90
14357;DHT22;7262;48.764;9.166;2022-11-23T06:04:21;4.70;99.90
14357;DHT22;7262;48.764;9.166;2022-11-23T06:06:48;4.80;99.90
14357;DHT22;7262;48.764;9.166;2022-11-23T06:09:16;4.90;99.90
14357;DHT22;7262;48.764;9.166;2022-11-23T06:11:45;4.80;99.90
14357;DHT22;7262;48.764;9.166;2022-11-23T06:14:12;4.90;99.90
14357;DHT22;7262;48.764;9.166;2022-11-23T06:16:40;4.90;99.90
14357;DHT22;7262;48.764;9.166;2022-11-23T06:19:07;5.00;99.90
14357;DHT22;7262;48.764;9.166;2022-11-23T06:21:34;5.00;99.90
14357;DHT22;7262;48.764;9.166;2022-11-23T06:24:00;5.00;99.90
14357;DHT22;7262;48.764;9.166;2022-11-23T06:26:27;4.80;99.90
14357;DHT22;7262;48.764;9.166;2022-11-23T06:28:56;4.90;99.90
14357;DHT22;7262;48.764;9.166;2022-11-23T06:31:22;4.90;99.90
14357;DHT22;7262;48.764;9.166;2022-11-23T06:33:50;4.80;99.90
14357;DHT22;7262;48.764;9.166;2022-11-23T06:36:17;4.80;99.90
14357;DHT22;7262;48.764;9.166;2022-11-23T06:38:44;4.70;99.90
14357;DHT22;7262;48.764;9.166;2022-11-23T06:41:11;4.60;99.90
14357;DHT22;7262;48.764;9.166;2022-11-23T06:43:38;4.50;99.90
14357;DHT22;7262;48.764;9.166;2022-11-23T06:46:06;4.50;99.90
14357;DHT22;7262;48.764;9.166;2022-11-23T06:48:33;4.40;99.90
14357;DHT22;7262;48.764;9.166;2022-11-23T06:51:00;4.30;99.90
14357;DHT22;7262;48.764;9.166;2022-11-23T06:53:27;4.20;99.90
14357;DHT22;7262;48.764;9.166;2022-11-23T06:55:57;4.20;99.90
14357;DHT22;7262;48.764;9.166;2022-11-23T06:58:23;4.10;99.90
14357;DHT22;7262;48.764;9.166;2022-11-23T07:00:52;4.20;99.90
14357;DHT22;7262;48.764;9.166;2022-11-23T07:03:21;4.10;99.90
14357;DHT22;7262;48.764;9.166;2022-11-23T07:05:49;4.10;99.90
14357;DHT22;7262;48.764;9.166;2022-11-23T07:08:16;4.20;99.90
14357;DHT22;7262;48.764;9.166;2022-11-23T07:10:43;4.10;99.90
14357;DHT22;7262;48.764;9.166;2022-11-23T07:13:10;4.10;99.90
14357;DHT22;7262;48.764;9.166;2022-11-23T07:15:38;4.10;99.90
14357;DHT22;7262;48.764;9.166;2022-11-23T07:18:06;4.10;99.90
14357;DHT22;7262;48.764;9.166;2022-11-23T07:20:35;4.20;99.90
14357;DHT22;7262;48.764;9.166;2022-11-23T07:23:05;4.10;99.90
14357;DHT22;7262;48.764;9.166;2022-11-23T07:25:33;4.10;99.90
14357;DHT22;7262;48.764;9.166;2022-11-23T07:28:05;4.10;99.90
14357;DHT22;7262;48.764;9.166;2022-11-23T07:30:33;4.10;99.90
14357;DHT22;7262;48.764;9.166;2022-11-23T07:33:00;4.10;99.90
14357;DHT22;7262;48.764;9.166;2022-11-23T07:35:28;4.20;99.90
14357;DHT22;7262;48.764;9.166;2022-11-23T07:37:57;4.20;99.90
14357;DHT22;7262;48.764;9.166;2022-11-23T07:40:24;4.10;99.90
14357;DHT22;7262;48.764;9.166;2022-11-23T07:42:51;4.20;99.90
14357;DHT22;7262;48.764;9.166;2022-11-23T07:45:19;4.20;99.90
14357;DHT22;7262;48.764;9.166;2022-11-23T07:47:47;4.20;99.90
14357;DHT22;7262;48.764;9.166;2022-11-23T07:50:25;4.20;99.90
14357;DHT22;7262;48.764;9.166;2022-11-23T07:52:53;4.30;99.90
14357;DHT22;7262;48.764;9.166;2022-11-23T07:55:21;4.30;99.90
14357;DHT22;7262;48.764;9.166;2022-11-23T07:57:53;4.40;99.90
14357;DHT22;7262;48.764;9.166;2022-11-23T08:00:21;4.40;99.90
14357;DHT22;7262;48.764;9.166;2022-11-23T08:02:48;4.40;99.90
14357;DHT22;7262;48.764;9.166;2022-11-23T08:05:15;4.50;99.90
14357;DHT22;7262;48.764;9.166;2022-11-23T08:07:42;4.60;99.90
14357;DHT22;7262;48.764;9.166;2022-11-23T08:10:10;4.70;99.90
14357;DHT22;7262;48.764;9.166;2022-11-23T08:12:39;4.80;99.90
14357;DHT22;7262;48.764;9.166;2022-11-23T08:15:07;4.90;99.90
14357;DHT22;7262;48.764;9.166;2022-11-23T08:17:34;5.10;99.90
14357;DHT22;7262;48.764;9.166;2022-11-23T08:20:01;5.00;99.90
14357;DHT22;7262;48.764;9.166;2022-11-23T08:22:28;5.20;99.90
14357;DHT22;7262;48.764;9.166;2022-11-23T08:24:56;5.20;99.90
14357;DHT22;7262;48.764;9.166;2022-11-23T08:27:24;5.40;99.90
14357;DHT22;7262;48.764;9.166;2022-11-23T08:29:53;5.50;99.90
14357;DHT22;7262;48.764;9.166;2022-11-23T08:32:22;5.60;99.90
14357;DHT22;7262;48.764;9.166;2022-11-23T08:34:49;5.70;99.90
14357;DHT22;7262;48.764;9.166;2022-11-23T08:37:16;5.80;99.90
14357;DHT22;7262;48.764;9.166;2022-11-23T08:39:43;5.90;99.90
14357;DHT22;7262;48.764;9.166;2022-11-23T08:42:10;6.00;99.90
14357;DHT22;7262;48.764;9.166;2022-11-23T08:44:37;6.10;99.90
14357;DHT22;7262;48.764;9.166;2022-11-23T08:47:14;6.10;99.90
14357;DHT22;7262;48.764;9.166;2022-11-23T08:49:42;6.20;99.90
14357;DHT22;7262;48.764;9.166;2022-11-23T08:52:10;6.30;99.90
14357;DHT22;7262;48.764;9.166;2022-11-23T08:54:37;6.30;99.90
14357;DHT22;7262;48.764;9.166;2022-11-23T08:57:04;6.40;99.90
14357;DHT22;7262;48.764;9.166;2022-11-23T08:59:31;6.50;99.90
14357;DHT22;7262;48.764;9.166;2022-11-23T09:01:58;6.60;99.90
14357;DHT22;7262;48.764;9.166;2022-11-23T09:04:28;6.70;99.90
14357;DHT22;7262;48.764;9.166;2022-11-23T09:06:56;6.70;99.90
14357;DHT22;7262;48.764;9.166;2022-11-23T09:09:23;6.70;99.90
14357;DHT22;7262;48.764;9.166;2022-11-23T09:11:50;6.70;99.90
14357;DHT22;7262;48.764;9.166;2022-11-23T09:14:18;6.90;99.90
14357;DHT22;7262;48.764;9.166;2022-11-23T09:16:47;6.90;99.90
14357;DHT22;7262;48.764;9.166;2022-11-23T09:19:14;7.00;99.90
14357;DHT22;7262;48.764;9.166;2022-11-23T09:21:43;7.10;99.90
14357;DHT22;7262;48.764;9.166;2022-11-23T09:24:10;7.10;99.90
14357;DHT22;7262;48.764;9.166;2022-11-23T09:26:37;7.20;99.90
14357;DHT22;7262;48.764;9.166;2022-11-23T09:29:04;7.10;99.90
14357;DHT22;7262;48.764;9.166;2022-11-23T09:31:31;7.30;99.90
14357;DHT22;7262;48.764;9.166;2022-11-23T09:33:58;7.40;99.90
14357;DHT22;7262;48.764;9.166;2022-11-23T09:36:25;7.40;99.90
14357;DHT22;7262;48.764;9.166;2022-11-23T09:38:53;7.50;99.90
14357;DHT22;7262;48.764;9.166;2022-11-23T09:43:57;7.70;99.90
14357;DHT22;7262;48.764;9.166;2022-11-23T09:51:43;7.90;99.90
14357;DHT22;7262;48.764;9.166;2022-11-23T09:56:58;8.00;99.90
14357;DHT22;7262;48.764;9.166;2022-11-23T09:59:30;8.10;99.90
14357;DHT22;7262;48.764;9.166;2022-11-23T10:02:05;8.20;99.90
14357;DHT22;7262;48.764;9.166;2022-11-23T10:04:41;8.20;99.90
14357;DHT22;7262;48.764;9.166;2022-11-23T10:07:11;8.20;99.90
14357;DHT22;7262;48.764;9.166;2022-11-23T10:09:46;8.30;99.90
14357;DHT22;7262;48.764;9.166;2022-11-23T10:12:25;8.40;99.90
14357;DHT22;7262;48.764;9.166;2022-11-23T10:15:00;8.40;99.90
14357;DHT22;7262;48.764;9.166;2022-11-23T10:17:44;8.40;99.90
14357;DHT22;7262;48.764;9.166;2022-11-23T10:20:18;8.50;99.90
14357;DHT22;7262;48.764;9.166;2022-11-23T10:22:47;8.50;99.90
14357;DHT22;7262;48.764;9.166;2022-11-23T10:25:19;8.50;99.90
14357;DHT22;7262;48.764;9.166;2022-11-23T10:27:48;8.50;99.90
14357;DHT22;7262;48.764;9.166;2022-11-23T10:30:16;8.40;99.90
14357;DHT22;7262;48.764;9.166;2022-11-23T10:32:44;8.50;99.90
14357;DHT22;7262;48.764;9.166;2022-11-23T10:35:13;8.60;99.90
14357;DHT22;7262;48.764;9.166;2022-11-23T10:37:41;8.60;99.90
14357;DHT22;7262;48.764;9.166;2022-11-23T10:42:49;8.90;99.90
14357;DHT22;7262;48.764;9.166;2022-11-23T10:45:18;9.00;99.90
14357;DHT22;7262;48.764;9.166;2022-11-23T10:47:49;9.10;99.90
14357;DHT22;7262;48.764;9.166;2022-11-23T10:50:21;9.20;99.90
14357;DHT22;7262;48.764;9.166;2022-11-23T10:52:50;9.40;99.90
14357;DHT22;7262;48.764;9.166;2022-11-23T10:55:17;9.50;99.90
14357;DHT22;7262;48.764;9.166;2022-11-23T10:57:45;9.70;99.90
14357;DHT22;7262;48.764;9.166;2022-11-23T11:00:15;10.50;99.90
14357;DHT22;7262;48.764;9.166;2022-11-23T11:02:43;11.90;99.90
14357;DHT22;7262;48.764;9.166;2022-11-23T11:07:56;14.20;99.90
14357;DHT22;7262;48.764;9.166;2022-11-23T11:10:32;14.70;99.90
14357;DHT22;7262;48.764;9.166;2022-11-23T11:12:59;14.80;99.90
14357;DHT22;7262;48.764;9.166;2022-11-23T11:15:28;15.50;99.90
14357;DHT22;7262;48.764;9.166;2022-11-23T11:17:55;15.30;99.90
14357;DHT22;7262;48.764;9.166;2022-11-23T11:20:23;15.00;99.90
14357;DHT22;7262;48.764;9.166;2022-11-23T11:22:54;15.70;99.90
14357;DHT22;7262;48.764;9.166;2022-11-23T11:25:27;15.90;99.90
14357;DHT22;7262;48.764;9.166;2022-11-23T11:27:55;15.80;99.90
14357;DHT22;7262;48.764;9.166;2022-11-23T11:30:22;14.40;99.90
14357;DHT22;7262;48.764;9.166;2022-11-23T11:32:52;12.90;99.90
14357;DHT22;7262;48.764;9.166;2022-11-23T11:35:22;12.10;99.90
14357;DHT22;7262;48.764;9.166;2022-11-23T11:37:53;11.60;99.90
14357;DHT22;7262;48.764;9.166;2022-11-23T11:40:22;11.00;99.90
14357;DHT22;7262;48.764;9.166;2022-11-23T11:42:54;10.70;99.90
14357;DHT22;7262;48.764;9.166;2022-11-23T11:45:24;10.40;99.90
14357;DHT22;7262;48.764;9.166;2022-11-23T11:47:54;10.40;99.90
14357;DHT22;7262;48.764;9.166;2022-11-23T11:50:23;10.30;99.90
14357;DHT22;7262;48.764;9.166;2022-11-23T11:52:53;10.30;99.90
14357;DHT22;7262;48.764;9.166;2022-11-23T11:55:24;10.30;99.90
14357;DHT22;7262;48.764;9.166;2022-11-23T11:57:54;10.40;99.90
14357;DHT22;7262;48.764;9.166;2022-11-23T12:00:21;10.40;99.90
14357;DHT22;7262;48.764;9.166;2022-11-23T12:02:50;10.30;99.90
14357;DHT22;7262;48.764;9.166;2022-11-23T12:05:23;10.30;99.90
14357;DHT22;7262;48.764;9.166;2022-11-23T12:07:53;10.30;99.90
14357;DHT22;7262;48.764;9.166;2022-11-23T12:28:54;10.30;99.90
14357;DHT22;7262;48.764;9.166;2022-11-23T12:42:03;10.30;99.90
14357;DHT22;7262;48.764;9.166;2022-11-23T12:55:00;10.50;99.90
14357;DHT22;7262;48.764;9.166;2022-11-23T12:57:38;10.60;99.90
14357;DHT22;7262;48.764;9.166;2022-11-23T13:00:11;10.80;99.90
14357;DHT22;7262;48.764;9.166;2022-11-23T13:02:52;10.70;99.90
14357;DHT22;7262;48.764;9.166;2022-11-23T13:05:33;10.80;99.90
14357;DHT22;7262;48.764;9.166;2022-11-23T13:15:58;12.60;99.90
14357;DHT22;7262;48.764;9.166;2022-11-23T13:18:34;13.40;99.90
14357;DHT22;7262;48.764;9.166;2022-11-23T13:21:08;13.50;99.90
14357;DHT22;7262;48.764;9.166;2022-11-23T13:23:35;13.30;99.90
14357;DHT22;7262;48.764;9.166;2022-11-23T13:26:11;12.50;99.90
14357;DHT22;7262;48.764;9.166;2022-11-23T13:28:37;12.20;99.90
14357;DHT22;7262;48.764;9.166;2022-11-23T13:31:21;11.80;99.90
14357;DHT22;7262;48.764;9.166;2022-11-23T13:33:51;11.30;99.90
14357;DHT22;7262;48.764;9.166;2022-11-23T13:42:07;10.70;99.90
14357;DHT22;7262;48.764;9.166;2022-11-23T13:44:35;10.60;99.90
14357;DHT22;7262;48.764;9.166;2022-11-23T13:47:16;10.60;99.90
14357;DHT22;7262;48.764;9.166;2022-11-23T13:49:44;10.60;99.90
14357;DHT22;7262;48.764;9.166;2022-11-23T13:52:19;10.60;99.90
14357;DHT22;7262;48.764;9.166;2022-11-23T13:54:52;10.50;99.90
14357;DHT22;7262;48.764;9.166;2022-11-23T13:57:19;10.50;99.90
14357;DHT22;7262;48.764;9.166;2022-11-23T13:59:46;10.40;99.90
14357;DHT22;7262;48.764;9.166;2022-11-23T14:02:25;10.30;99.90
14357;DHT22;7262;48.764;9.166;2022-11-23T14:04:52;10.40;99.90
14357;DHT22;7262;48.764;9.166;2022-11-23T14:07:20;10.40;99.90
14357;DHT22;7262;48.764;9.166;2022-11-23T14:09:48;10.40;99.90
14357;DHT22;7262;48.764;9.166;2022-11-23T14:12:17;10.40;99.90
14357;DHT22;7262;48.764;9.166;2022-11-23T14:14:47;10.40;99.90
14357;DHT22;7262;48.764;9.166;2022-11-23T14:17:29;10.20;99.90
14357;DHT22;7262;48.764;9.166;2022-11-23T14:20:12;10.20;99.90
14357;DHT22;7262;48.764;9.166;2022-11-23T14:22:56;10.20;99.90
14357;DHT22;7262;48.764;9.166;2022-11-23T14:25:28;10.20;99.90
14357;DHT22;7262;48.764;9.166;2022-11-23T14:27:59;10.10;99.90
14357;DHT22;7262;48.764;9.166;2022-11-23T14:30:38;10.10;99.90
14357;DHT22;7262;48.764;9.166;2022-11-23T14:36:05;10.10;99.90
14357;DHT22;7262;48.764;9.166;2022-11-23T14:41:14;9.90;99.90
14357;DHT22;7262;48.764;9.166;2022-11-23T14:43:42;9.90;99.90
14357;DHT22;7262;48.764;9.166;2022-11-23T14:46:13;9.90;99.90
14357;DHT22;7262;48.764;9.166;2022-11-23T14:48:46;9.90;99.90
14357;DHT22;7262;48.764;9.166;2022-11-23T14:51:21;9.90;99.90
14357;DHT22;7262;48.764;9.166;2022-11-23T14:53:48;9.70;99.90
14357;DHT22;7262;48.764;9.166;2022-11-23T14:56:20;9.60;99.90
14357;DHT22;7262;48.764;9.166;2022-11-23T14:58:48;9.50;99.90
14357;DHT22;7262;48.764;9.166;2022-11-23T15:01:17;9.50;99.90
14357;DHT22;7262;48.764;9.166;2022-11-23T15:03:53;9.50;99.90
14357;DHT22;7262;48.764;9.166;2022-11-23T15:06:22;9.40;99.90
14357;DHT22;7262;48.764;9.166;2022-11-23T15:08:53;9.40;99.90
14357;DHT22;7262;48.764;9.166;2022-11-23T15:13:58;9.20;99.90
14357;DHT22;7262;48.764;9.166;2022-11-23T15:19:15;9.00;99.90
14357;DHT22;7262;48.764;9.166;2022-11-23T15:24:24;8.70;99.90
14357;DHT22;7262;48.764;9.166;2022-11-23T15:26:51;8.90;99.90
14357;DHT22;7262;48.764;9.166;2022-11-23T15:34:29;8.70;99.90
14357;DHT22;7262;48.764;9.166;2022-11-23T15:37:01;8.60;99.90
14357;DHT22;7262;48.764;9.166;2022-11-23T15:49:52;8.40;99.90
14357;DHT22;7262;48.764;9.166;2022-11-23T16:07:57;8.20;99.90
14357;DHT22;7262;48.764;9.166;2022-11-23T16:18:17;8.20;99.90
14357;DHT22;7262;48.764;9.166;2022-11-23T16:41:36;8.40;99.90
14357;DHT22;7262;48.764;9.166;2022-11-23T16:54:25;8.50;99.90
14357;DHT22;7262;48.764;9.166;2022-11-23T16:56:54;8.50;99.90
14357;DHT22;7262;48.764;9.166;2022-11-23T16:59:22;8.60;99.90
14357;DHT22;7262;48.764;9.166;2022-11-23T17:04:25;8.30;99.90
14357;DHT22;7262;48.764;9.166;2022-11-23T17:06:53;8.30;99.90
14357;DHT22;7262;48.764;9.166;2022-11-23T17:09:21;8.30;99.90
14357;DHT22;7262;48.764;9.166;2022-11-23T17:11:49;8.20;99.90
14357;DHT22;7262;48.764;9.166;2022-11-23T17:14:17;8.10;99.90
14357;DHT22;7262;48.764;9.166;2022-11-23T17:16:44;8.10;99.90
14357;DHT22;7262;48.764;9.166;2022-11-23T17:19:13;8.00;99.90
14357;DHT22;7262;48.764;9.166;2022-11-23T17:21:40;8.00;99.90
14357;DHT22;7262;48.764;9.166;2022-11-23T17:24:06;7.90;99.90
14357;DHT22;7262;48.764;9.166;2022-11-23T17:26:36;7.90;99.90
14357;DHT22;7262;48.764;9.166;2022-11-23T17:29:04;8.00;99.90
14357;DHT22;7262;48.764;9.166;2022-11-23T17:31:32;7.90;99.90
14357;DHT22;7262;48.764;9.166;2022-11-23T17:34:00;7.90;99.90
14357;DHT22;7262;48.764;9.166;2022-11-23T17:36:27;8.00;99.90
14357;DHT22;7262;48.764;9.166;2022-11-23T17:38:55;7.90;99.90
14357;DHT22;7262;48.764;9.166;2022-11-23T17:41:22;7.90;99.90
14357;DHT22;7262;48.764;9.166;2022-11-23T17:43:49;7.80;99.90
14357;DHT22;7262;48.764;9.166;2022-11-23T17:46:17;7.80;99.90
14357;DHT22;7262;48.764;9.166;2022-11-23T17:48:46;7.70;99.90
14357;DHT22;7262;48.764;9.166;2022-11-23T17:51:14;7.50;99.90
14357;DHT22;7262;48.764;9.166;2022-11-23T17:53:41;7.60;99.90
14357;DHT22;7262;48.764;9.166;2022-11-23T17:56:12;7.50;99.90
14357;DHT22;7262;48.764;9.166;2022-11-23T17:58:41;7.50;99.90
14357;DHT22;7262;48.764;9.166;2022-11-23T18:01:08;7.40;99.90
14357;DHT22;7262;48.764;9.166;2022-11-23T18:03:37;7.30;99.90
14357;DHT22;7262;48.764;9.166;2022-11-23T18:06:05;7.20;99.90
14357;DHT22;7262;48.764;9.166;2022-11-23T18:08:32;7.20;99.90
14357;DHT22;7262;48.764;9.166;2022-11-23T18:10:59;7.20;99.90
14357;DHT22;7262;48.764;9.166;2022-11-23T18:13:26;7.10;99.90
14357;DHT22;7262;48.764;9.166;2022-11-23T18:15:53;7.20;99.90
14357;DHT22;7262;48.764;9.166;2022-11-23T18:18:20;7.10;99.90
14357;DHT22;7262;48.764;9.166;2022-11-23T18:20:48;7.00;99.90
14357;DHT22;7262;48.764;9.166;2022-11-23T18:23:16;7.00;99.90
14357;DHT22;7262;48.764;9.166;2022-11-23T18:25:43;7.00;99.90
14357;DHT22;7262;48.764;9.166;2022-11-23T18:28:10;6.90;99.90
14357;DHT22;7262;48.764;9.166;2022-11-23T18:30:40;6.90;99.90
14357;DHT22;7262;48.764;9.166;2022-11-23T18:33:08;6.80;99.90
14357;DHT22;7262;48.764;9.166;2022-11-23T18:35:35;6.80;99.90
14357;DHT22;7262;48.764;9.166;2022-11-23T18:38:02;6.80;99.90
14357;DHT22;7262;48.764;9.166;2022-11-23T18:43:15;6.80;99.90
14357;DHT22;7262;48.764;9.166;2022-11-23T18:45:42;6.80;99.90